Kitchings Mill, South Carolina
Current Conditions -  °F | °C
As of 1:15 PM on Sunday 25 Jan 2015 (Local Time) from KAIK Reporting Station
Clear Clear  
Wind Chill: 55°   Ceiling: Unl
Heat Index: 55°   Visibility: 10mi
Dew Point: 32°   Wind: 7mph
Humidity: 41%   Direction: 210°SSW
Pressure: 29.92"   Gusts: NA
Location:  33.5901°N, 81.3327°W
Report Text: KAIK 251815Z AUTO 21006KT 10SM CLR 13/00 A2992 RMK AO2 PNO
Loading
Personal Weather Stations






























Interactive Weather Map New forecast layout! Learn more

10-Day Weather Forecast

Advertisements
Track Severe Weather on mobile